Time;durP1;ratioP1;P1;durP2;ratioP2;P2;SDS_P1;SDS_P2;PMS_P1;PMS_P2;Temp;Humidity;BMP_temperature;BMP_pressure;BME280_temperature;BME280_humidity;BME280_pressure;Samples;Min_cycle;Max_cycle;Signal;HPM_P1;HPM_P2
2022/02/07 00:00:44;;;;;;;17.10;2.35;;;5.00;99.90;;;;;;5005539;28;20048;-85
2022/02/07 00:03:22;;;;;;;16.50;3.22;;;5.00;99.90;;;;;;5026189;28;20025;-85
2022/02/07 00:05:48;;;;;;;17.00;2.97;;;5.00;99.90;;;;;;5038272;28;20052;-85
2022/02/07 00:08:15;;;;;;;21.15;4.30;;;5.00;99.90;;;;;;5005495;28;20071;-85
2022/02/07 00:10:41;;;;;;;16.83;3.60;;;5.10;99.90;;;;;;5005978;28;20037;-86
2022/02/07 00:13:08;;;;;;;22.98;3.80;;;5.00;99.90;;;;;;5021777;28;20025;-85
2022/02/07 00:15:35;;;;;;;19.23;3.58;;;5.10;99.90;;;;;;5055829;28;20083;-86
2022/02/07 00:18:02;;;;;;;17.80;3.20;;;5.00;99.90;;;;;;5021574;28;20530;-85
2022/02/07 00:20:28;;;;;;;23.17;2.70;;;5.10;99.90;;;;;;5038153;28;20037;-86
2022/02/07 00:22:54;;;;;;;18.80;2.08;;;5.10;99.90;;;;;;5038217;28;20029;-85
2022/02/07 00:25:21;;;;;;;17.38;2.50;;;5.10;99.90;;;;;;5021648;28;20120;-85
2022/02/07 00:27:47;;;;;;;16.23;2.80;;;5.00;99.90;;;;;;5037771;28;20029;-85
2022/02/07 00:30:15;;;;;;;11.55;1.90;;;5.00;99.90;;;;;;5021580;28;20033;-85
2022/02/07 00:32:44;;;;;;;20.13;3.28;;;5.00;99.90;;;;;;5055762;28;20021;-85
2022/02/07 00:35:14;;;;;;;12.10;2.00;;;5.00;99.90;;;;;;5037773;28;20108;-85
2022/02/07 00:37:45;;;;;;;13.65;2.58;;;5.00;99.90;;;;;;5038118;28;20439;-85
2022/02/07 00:42:54;;;;;;;15.32;1.77;;;4.90;99.90;;;;;;5055137;28;20464;-86
2022/02/07 00:45:49;;;;;;;8.60;1.55;;;4.80;99.90;;;;;;5055582;28;20079;-85
2022/02/07 00:48:11;;;;;;;9.25;1.38;;;4.90;99.90;;;;;;5054377;28;20036;-85
2022/02/07 00:50:39;;;;;;;13.98;1.98;;;4.80;99.90;;;;;;5055096;28;20025;-86
2022/02/07 00:53:11;;;;;;;7.82;1.33;;;4.80;99.90;;;;;;5037355;28;20028;-86
2022/02/07 00:55:36;;;;;;;13.98;1.70;;;4.70;99.90;;;;;;5055676;28;20029;-86
2022/02/07 00:58:03;;;;;;;12.20;1.70;;;4.80;99.90;;;;;;5004582;28;20036;-85
2022/02/07 01:00:28;;;;;;;8.77;1.83;;;4.80;99.90;;;;;;5021099;28;20029;-85
2022/02/07 01:02:54;;;;;;;14.10;1.77;;;4.80;99.90;;;;;;5020733;28;20457;-86
2022/02/07 01:05:20;;;;;;;17.73;3.22;;;4.80;99.90;;;;;;5037494;28;20022;-86
2022/02/07 01:07:48;;;;;;;18.08;3.25;;;4.80;99.90;;;;;;5037271;28;20044;-85
2022/02/07 01:10:20;;;;;;;15.68;2.63;;;4.70;99.90;;;;;;5020886;28;20033;-86
2022/02/07 01:21:07;;;;;;;14.23;2.72;;;4.60;99.90;;;;;;5026071;28;20043;-86
2022/02/07 01:53:45;;;;;;;12.27;2.03;;;4.50;99.90;;;;;;5054021;28;20047;-85
2022/02/07 01:56:10;;;;;;;17.33;2.70;;;4.50;99.90;;;;;;5024423;28;20025;-86
2022/02/07 01:58:36;;;;;;;11.85;2.30;;;4.50;99.90;;;;;;5018042;28;20469;-86
2022/02/07 02:01:02;;;;;;;11.25;1.85;;;4.50;99.90;;;;;;5052282;28;20024;-88
2022/02/07 02:03:28;;;;;;;18.42;2.30;;;4.50;99.90;;;;;;5018503;28;20090;-87
2022/02/07 02:05:55;;;;;;;14.27;2.38;;;4.40;99.90;;;;;;5034606;28;20469;-87
2022/02/07 02:08:21;;;;;;;14.63;2.17;;;4.50;99.90;;;;;;5018054;28;20056;-88
2022/02/07 02:10:50;;;;;;;13.63;1.95;;;4.50;99.90;;;;;;5034789;28;20021;-86
2022/02/07 02:13:21;;;;;;;15.85;2.72;;;4.50;99.90;;;;;;5053154;28;20036;-86
2022/02/07 02:16:05;;;;;;;12.73;2.60;;;4.50;99.90;;;;;;5036323;28;20056;-86
2022/02/07 02:37:50;;;;;;;21.17;2.72;;;4.50;99.90;;;;;;5038974;28;20109;-86
2022/02/07 02:45:36;;;;;;;23.38;3.20;;;4.50;99.90;;;;;;5053866;28;20032;-86
2022/02/07 02:48:07;;;;;;;26.95;3.65;;;4.60;99.90;;;;;;5053175;28;20035;-92
2022/02/07 02:50:35;;;;;;;15.48;2.53;;;4.60;99.90;;;;;;5035647;28;20377;-87
2022/02/07 02:53:03;;;;;;;23.60;2.67;;;4.60;99.90;;;;;;5035461;28;20385;-84
2022/02/07 02:55:30;;;;;;;25.52;3.20;;;4.60;99.90;;;;;;5035662;28;20025;-86
2022/02/07 02:57:57;;;;;;;18.67;3.03;;;4.60;99.90;;;;;;5035487;28;20025;-86
2022/02/07 03:00:24;;;;;;;19.73;2.97;;;4.60;99.90;;;;;;5018577;28;20033;-86
2022/02/07 03:02:50;;;;;;;20.55;2.85;;;4.60;99.90;;;;;;5015654;28;20021;-86
2022/02/07 03:05:16;;;;;;;20.70;2.92;;;4.60;99.90;;;;;;5001922;28;20179;-86
2022/02/07 03:07:43;;;;;;;15.93;2.83;;;4.60;99.90;;;;;;5035455;28;20037;-86
2022/02/07 03:10:09;;;;;;;24.40;3.15;;;4.60;99.90;;;;;;5035465;28;20029;-86
2022/02/07 03:12:46;;;;;;;18.50;2.60;;;4.60;99.90;;;;;;5052741;28;20492;-86
2022/02/07 03:16:37;;;;;;;15.85;2.83;;;4.70;99.90;;;;;;5020287;28;20462;-86
2022/02/07 03:17:58;;;;;;;18.90;2.72;;;4.70;99.90;;;;;;5052807;28;20477;-86
2022/02/07 03:20:24;;;;;;;24.50;3.50;;;4.70;99.90;;;;;;5035241;28;20033;-86
2022/02/07 03:22:50;;;;;;;24.77;2.80;;;4.60;99.90;;;;;;5019156;28;20033;-86
2022/02/07 03:25:15;;;;;;;15.10;3.33;;;4.60;99.90;;;;;;5018973;28;20102;-86
2022/02/07 03:27:41;;;;;;;21.63;2.10;;;4.70;99.90;;;;;;5035548;28;20036;-86
2022/02/07 03:30:08;;;;;;;21.85;2.80;;;4.70;99.90;;;;;;5018545;28;20029;-88
2022/02/07 03:32:33;;;;;;;17.90;2.15;;;4.70;99.90;;;;;;5018141;28;20025;-86
2022/02/07 03:34:59;;;;;;;21.25;3.40;;;4.70;99.90;;;;;;5032122;28;20382;-86
2022/02/07 03:37:24;;;;;;;21.08;2.95;;;4.70;99.90;;;;;;4986887;28;20040;-86
2022/02/07 03:39:50;;;;;;;20.67;3.00;;;4.70;99.90;;;;;;5041425;28;20139;-87
2022/02/07 03:42:18;;;;;;;18.13;2.70;;;4.70;99.90;;;;;;5058983;28;20035;-88
2022/02/07 03:44:44;;;;;;;19.13;2.95;;;4.70;99.90;;;;;;5042384;28;20035;-86
2022/02/07 03:47:10;;;;;;;21.40;3.58;;;4.70;99.90;;;;;;5058800;28;20029;-91
2022/02/07 03:49:35;;;;;;;20.92;3.03;;;4.70;99.90;;;;;;5058864;28;20024;-86
2022/02/07 03:52:01;;;;;;;17.27;3.58;;;4.70;99.90;;;;;;5059058;28;20108;-86
2022/02/07 03:54:27;;;;;;;18.42;2.55;;;4.70;99.90;;;;;;5058681;28;20024;-86
2022/02/07 03:56:52;;;;;;;15.15;3.78;;;4.70;99.90;;;;;;5058786;28;20028;-86
2022/02/07 03:59:18;;;;;;;23.23;3.42;;;4.70;99.90;;;;;;5076382;28;20024;-86
2022/02/07 04:01:45;;;;;;;21.38;3.08;;;4.70;99.90;;;;;;5025634;28;20044;-87
2022/02/07 04:04:10;;;;;;;24.73;2.72;;;4.70;99.90;;;;;;5058672;28;20410;-86
2022/02/07 04:06:36;;;;;;;13.82;3.13;;;4.70;99.90;;;;;;5058383;28;20036;-86
2022/02/07 04:09:06;;;;;;;21.80;4.55;;;4.70;99.90;;;;;;5058726;28;20105;-86
2022/02/07 04:11:38;;;;;;;29.92;4.75;;;4.70;99.90;;;;;;5058468;28;20027;-86
2022/02/07 04:14:04;;;;;;;22.20;3.40;;;4.70;99.90;;;;;;5025710;28;20489;-87
2022/02/07 04:16:36;;;;;;;20.73;3.15;;;4.80;99.90;;;;;;5041798;28;20025;-86
2022/02/07 04:21:30;;;;;;;23.08;4.32;;;4.80;99.90;;;;;;5058241;28;20040;-85
2022/02/07 04:23:57;;;;;;;19.48;3.80;;;4.80;99.90;;;;;;5042005;28;20033;-87
2022/02/07 04:26:23;;;;;;;17.08;2.90;;;4.80;99.90;;;;;;5058199;28;20075;-86
2022/02/07 04:28:51;;;;;;;19.50;2.25;;;4.90;99.90;;;;;;5058449;28;20044;-85
2022/02/07 04:31:16;;;;;;;24.20;3.75;;;4.90;99.90;;;;;;5058324;28;20040;-87
2022/02/07 04:33:42;;;;;;;23.75;3.70;;;5.00;99.90;;;;;;5058276;28;20361;-87
2022/02/07 04:36:08;;;;;;;16.33;3.22;;;4.90;99.90;;;;;;5058353;28;20035;-86
2022/02/07 04:38:34;;;;;;;19.98;2.50;;;5.00;99.90;;;;;;5058097;28;20040;-86
2022/02/07 04:40:59;;;;;;;22.77;3.80;;;5.00;99.90;;;;;;5058774;28;20040;-86
2022/02/07 04:43:25;;;;;;;17.75;4.03;;;5.00;99.90;;;;;;5041520;28;20024;-86
2022/02/07 04:46:04;;;;;;;15.77;2.78;;;5.00;99.90;;;;;;5057991;28;20024;-85
2022/02/07 04:48:45;;;;;;;14.75;2.70;;;5.00;99.90;;;;;;5075975;28;20032;-86
2022/02/07 04:51:40;;;;;;;18.63;3.30;;;5.10;99.90;;;;;;5057016;28;20036;-86
2022/02/07 04:59:35;;;;;;;21.15;2.67;;;5.10;99.90;;;;;;5075712;28;20039;-87
2022/02/07 05:02:09;;;;;;;20.35;3.33;;;5.10;99.90;;;;;;5059985;28;20055;-87
2022/02/07 05:04:40;;;;;;;18.63;2.60;;;5.20;99.90;;;;;;5042477;28;20556;-86
2022/02/07 05:15:19;;;;;;;21.65;3.97;;;5.30;99.90;;;;;;5075591;28;20051;-86
2022/02/07 05:17:44;;;;;;;19.17;3.40;;;5.30;99.90;;;;;;5024372;28;20037;-87
2022/02/07 05:20:10;;;;;;;19.58;2.80;;;5.30;99.90;;;;;;5040923;28;20038;-87
2022/02/07 05:22:37;;;;;;;18.40;3.63;;;5.30;99.90;;;;;;5024443;28;20032;-86
2022/02/07 05:25:04;;;;;;;22.60;2.67;;;5.30;99.90;;;;;;5057376;28;20021;-86
2022/02/07 05:27:29;;;;;;;21.15;4.18;;;5.30;99.90;;;;;;5056916;28;20396;-88
2022/02/07 05:29:55;;;;;;;27.45;4.97;;;5.30;99.90;;;;;;5057626;28;20017;-86
2022/02/07 05:32:22;;;;;;;19.65;3.50;;;5.30;99.90;;;;;;5075524;28;20031;-86
2022/02/07 05:34:48;;;;;;;24.58;2.95;;;5.40;99.90;;;;;;5040506;28;20082;-87
2022/02/07 05:37:15;;;;;;;21.90;2.63;;;5.40;99.90;;;;;;5057146;28;20040;-87
2022/02/07 05:39:43;;;;;;;17.48;3.05;;;5.40;99.90;;;;;;5040176;28;20051;-86
2022/02/07 05:42:09;;;;;;;22.83;3.25;;;5.40;99.90;;;;;;5041389;28;20036;-86
2022/02/07 05:44:38;;;;;;;20.15;2.85;;;5.40;99.90;;;;;;5040298;28;20033;-86
2022/02/07 05:47:05;;;;;;;19.25;2.83;;;5.50;99.90;;;;;;5056858;28;20028;-86
2022/02/07 05:49:32;;;;;;;24.17;3.50;;;5.50;99.90;;;;;;5056844;28;20025;-87
2022/02/07 05:51:58;;;;;;;21.73;3.42;;;5.50;99.90;;;;;;5074775;28;20376;-86
2022/02/07 05:54:24;;;;;;;23.67;3.33;;;5.50;99.90;;;;;;5040437;28;20037;-86
2022/02/07 05:56:50;;;;;;;25.23;4.53;;;5.50;99.90;;;;;;5056353;28;20029;-86
2022/02/07 05:59:15;;;;;;;22.58;3.10;;;5.50;99.90;;;;;;5039739;28;20041;-86
2022/02/07 06:01:41;;;;;;;23.02;3.97;;;5.60;99.90;;;;;;5056807;28;20025;-86
2022/02/07 06:04:07;;;;;;;20.10;4.10;;;5.60;99.90;;;;;;5075015;28;20028;-86
2022/02/07 06:06:32;;;;;;;24.38;2.70;;;5.60;99.90;;;;;;5056873;28;20021;-88
2022/02/07 06:08:58;;;;;;;19.80;2.80;;;5.60;99.90;;;;;;5040321;28;20032;-87
2022/02/07 06:11:24;;;;;;;17.05;2.63;;;5.60;99.90;;;;;;5040630;28;20028;-87
2022/02/07 06:13:50;;;;;;;27.25;3.95;;;5.60;99.90;;;;;;5040737;28;20032;-86
2022/02/07 06:16:17;;;;;;;23.02;3.30;;;5.60;99.90;;;;;;5040782;28;20039;-85
2022/02/07 06:18:47;;;;;;;20.48;2.80;;;5.50;99.90;;;;;;5075203;28;20043;-86
2022/02/07 06:21:13;;;;;;;27.30;3.85;;;5.60;99.90;;;;;;5025031;28;20472;-86
2022/02/07 06:23:39;;;;;;;21.77;3.08;;;5.50;99.90;;;;;;5024604;28;20017;-86
2022/02/07 06:26:06;;;;;;;15.93;3.38;;;5.60;99.90;;;;;;5040374;28;20393;-85
2022/02/07 06:28:32;;;;;;;22.70;3.72;;;5.60;99.90;;;;;;5057251;28;20028;-88
2022/02/07 06:30:58;;;;;;;21.98;4.32;;;5.60;99.90;;;;;;5073508;28;20025;-87
2022/02/07 06:33:23;;;;;;;20.90;3.92;;;5.60;99.90;;;;;;5023123;28;20036;-86
2022/02/07 06:35:50;;;;;;;18.27;3.13;;;5.50;99.90;;;;;;5057058;28;20503;-85
2022/02/07 06:38:16;;;;;;;27.55;3.75;;;5.50;99.90;;;;;;5056352;28;20043;-87
2022/02/07 06:40:41;;;;;;;17.98;2.80;;;5.50;99.90;;;;;;5056904;28;20029;-86
2022/02/07 06:43:07;;;;;;;17.88;4.03;;;5.60;99.90;;;;;;5056079;28;20024;-86
2022/02/07 06:45:33;;;;;;;19.83;3.67;;;5.50;99.90;;;;;;5049830;28;20032;-90
2022/02/07 06:47:59;;;;;;;25.75;3.92;;;5.50;99.90;;;;;;5020348;28;20025;-87
2022/02/07 06:50:24;;;;;;;21.45;3.08;;;5.60;99.90;;;;;;5049617;28;20469;-86
2022/02/07 06:52:51;;;;;;;19.00;3.20;;;5.50;99.90;;;;;;5051965;28;20157;-87
2022/02/07 06:55:17;;;;;;;22.83;3.45;;;5.50;99.90;;;;;;5034908;28;20028;-86
2022/02/07 06:57:45;;;;;;;18.98;3.75;;;5.50;99.90;;;;;;5053149;28;20043;-87
2022/02/07 07:00:12;;;;;;;20.70;3.08;;;5.50;99.90;;;;;;5042713;28;20028;-88
2022/02/07 07:02:38;;;;;;;22.15;2.78;;;5.50;99.90;;;;;;5035647;28;20115;-86
2022/02/07 07:05:12;;;;;;;20.25;2.78;;;5.50;99.90;;;;;;5030255;28;20041;-87
2022/02/07 07:07:38;;;;;;;18.50;3.63;;;5.50;99.90;;;;;;5067260;28;20021;-87
2022/02/07 07:10:05;;;;;;;19.83;3.08;;;5.50;99.90;;;;;;5054061;28;20032;-87
2022/02/07 07:12:30;;;;;;;18.50;3.78;;;5.50;99.90;;;;;;5056394;28;20080;-88
2022/02/07 07:15:07;;;;;;;19.98;3.28;;;5.50;99.90;;;;;;5056857;28;20020;-88
2022/02/07 07:17:34;;;;;;;29.33;4.38;;;5.50;99.90;;;;;;5050097;28;20091;-87
2022/02/07 07:20:02;;;;;;;23.33;3.63;;;5.50;99.90;;;;;;5060087;28;20053;-87
2022/02/07 07:22:30;;;;;;;24.33;3.13;;;5.50;99.90;;;;;;5060844;28;20037;-87
2022/02/07 07:24:56;;;;;;;19.33;2.80;;;5.50;99.90;;;;;;5044350;28;20488;-86
2022/02/07 07:27:26;;;;;;;21.83;3.22;;;5.50;99.90;;;;;;5027094;28;20028;-86
2022/02/07 07:29:51;;;;;;;25.08;4.03;;;5.50;99.90;;;;;;5060197;28;20028;-86
2022/02/07 07:32:23;;;;;;;20.33;2.95;;;5.50;99.90;;;;;;5060582;28;20040;-85
2022/02/07 07:34:49;;;;;;;16.77;2.50;;;5.40;99.90;;;;;;5060626;28;20337;-86
2022/02/07 07:37:15;;;;;;;23.75;3.13;;;5.40;99.90;;;;;;5083679;28;20047;-86
2022/02/07 07:39:42;;;;;;;23.13;3.17;;;5.40;99.90;;;;;;5029139;28;20113;-87
2022/02/07 07:42:09;;;;;;;18.85;3.45;;;5.40;99.90;;;;;;5062217;28;20024;-86
2022/02/07 07:44:36;;;;;;;24.02;3.00;;;5.40;99.90;;;;;;5063497;28;20025;-86
2022/02/07 07:47:12;;;;;;;28.83;5.28;;;5.40;99.90;;;;;;5087883;28;20044;-86
2022/02/07 07:49:51;;;;;;;23.63;3.45;;;5.40;99.90;;;;;;5095801;28;20039;-86
2022/02/07 07:52:28;;;;;;;28.60;5.30;;;5.40;99.90;;;;;;5072973;28;20017;-85
2022/02/07 07:55:21;;;;;;;17.00;2.78;;;5.40;99.90;;;;;;5047866;28;21163;-85
2022/02/07 08:03:16;;;;;;;23.08;3.38;;;5.40;99.90;;;;;;5074301;28;20044;-87
2022/02/07 08:05:46;;;;;;;22.60;3.20;;;5.40;99.90;;;;;;5069953;28;20020;-88
2022/02/07 08:08:25;;;;;;;19.30;3.10;;;5.40;99.90;;;;;;5077389;28;20025;-85
2022/02/07 08:11:06;;;;;;;26.10;3.88;;;5.40;99.90;;;;;;5034250;28;20127;-91
2022/02/07 08:13:33;;;;;;;22.88;3.33;;;5.40;99.90;;;;;;5062385;28;20103;-86
2022/02/07 08:15:59;;;;;;;32.63;5.50;;;5.40;99.90;;;;;;5049966;28;20021;-86
2022/02/07 08:18:25;;;;;;;20.20;3.33;;;5.40;99.90;;;;;;5050783;28;20035;-86
2022/02/07 08:20:51;;;;;;;23.90;3.63;;;5.40;99.90;;;;;;5040882;28;20060;-86
2022/02/07 08:23:16;;;;;;;23.02;4.00;;;5.40;99.90;;;;;;5042746;28;20396;-85
2022/02/07 08:25:42;;;;;;;18.60;3.58;;;5.50;99.90;;;;;;5047086;28;20029;-93
2022/02/07 08:28:09;;;;;;;24.77;3.92;;;5.50;99.90;;;;;;5042619;28;20377;-87
2022/02/07 08:30:35;;;;;;;28.17;4.95;;;5.50;99.90;;;;;;5054617;28;20047;-85
2022/02/07 08:33:02;;;;;;;23.45;4.68;;;5.50;99.90;;;;;;5070783;28;20022;-85
2022/02/07 08:35:28;;;;;;;21.88;3.35;;;5.50;99.90;;;;;;5073320;28;20028;-86
2022/02/07 08:37:56;;;;;;;23.35;3.50;;;5.60;99.90;;;;;;5043954;28;20029;-88
2022/02/07 08:40:23;;;;;;;19.40;3.85;;;5.60;99.90;;;;;;5053739;28;20063;-86
2022/02/07 08:42:49;;;;;;;24.08;3.65;;;5.60;99.90;;;;;;5070708;28;20019;-88
2022/02/07 08:45:15;;;;;;;36.53;5.15;;;5.70;99.90;;;;;;5073534;28;20043;-87
2022/02/07 08:47:44;;;;;;;30.05;4.63;;;5.70;99.90;;;;;;5058424;28;20108;-87
2022/02/07 08:50:11;;;;;;;22.45;3.70;;;5.70;99.90;;;;;;5056661;28;20029;-87
2022/02/07 08:52:42;;;;;;;25.92;5.15;;;5.70;99.90;;;;;;5089885;28;20072;-87
2022/02/07 08:55:13;;;;;;;21.20;3.60;;;5.80;99.90;;;;;;5069528;28;20028;-86
2022/02/07 08:57:43;;;;;;;29.42;5.57;;;5.80;99.90;;;;;;5059252;28;20039;-86
2022/02/07 09:02:55;;;;;;;17.70;3.38;;;5.90;99.90;;;;;;5076766;28;20381;-86
2022/02/07 09:05:36;;;;;;;29.20;3.45;;;6.00;99.90;;;;;;5030961;28;20469;-85
2022/02/07 09:08:19;;;;;;;22.95;4.03;;;6.00;99.90;;;;;;5045176;28;20539;-86
2022/02/07 09:10:47;;;;;;;21.50;5.05;;;6.10;99.90;;;;;;5043949;28;20086;-85
2022/02/07 09:13:13;;;;;;;24.65;4.05;;;6.10;99.90;;;;;;5058929;28;20056;-86
2022/02/07 09:15:46;;;;;;;24.17;3.33;;;6.20;99.90;;;;;;5076968;28;20084;-86
2022/02/07 09:18:12;;;;;;;18.27;3.60;;;6.20;99.90;;;;;;5057002;28;20056;-86
2022/02/07 09:20:43;;;;;;;26.52;4.53;;;6.30;99.90;;;;;;5021794;28;20060;-86
2022/02/07 09:23:09;;;;;;;;;;;6.40;99.90;;;;;;5022385;28;20025;-85
2022/02/07 09:25:35;;;;;;;23.85;3.80;;;6.40;99.90;;;;;;5037606;28;19905;-85
2022/02/07 09:28:01;;;;;;;23.13;3.35;;;6.40;99.90;;;;;;5054933;28;20477;-85
2022/02/07 09:30:27;;;;;;;23.33;3.60;;;6.50;99.90;;;;;;5020853;28;20066;-85
2022/02/07 09:32:53;;;;;;;28.95;3.80;;;6.50;99.90;;;;;;5019387;28;20025;-86
2022/02/07 09:35:19;;;;;;;18.05;3.45;;;6.50;99.90;;;;;;5054637;28;20035;-86
2022/02/07 09:37:45;;;;;;;29.90;4.40;;;6.60;99.90;;;;;;5037212;28;20116;-86
2022/02/07 09:40:13;;;;;;;28.52;5.10;;;6.70;99.90;;;;;;5036498;28;20060;-85
2022/02/07 09:42:41;;;;;;;26.73;3.50;;;6.70;99.90;;;;;;5020795;28;20470;-86
2022/02/07 09:45:14;;;;;;;26.88;5.53;;;6.80;99.90;;;;;;5054817;28;20025;-85
2022/02/07 09:47:41;;;;;;;32.92;4.22;;;6.80;99.90;;;;;;5021378;28;20029;-86
2022/02/07 09:50:07;;;;;;;28.05;3.65;;;6.90;99.90;;;;;;5036906;28;20029;-85
2022/02/07 09:52:34;;;;;;;24.55;4.05;;;6.90;99.90;;;;;;5054759;28;20052;-85
2022/02/07 09:55:00;;;;;;;30.10;4.78;;;7.00;99.90;;;;;;5037369;28;20032;-86
2022/02/07 09:57:26;;;;;;;26.80;3.45;;;7.00;99.90;;;;;;5037691;28;20056;-88
2022/02/07 09:59:53;;;;;;;31.08;3.65;;;7.10;99.90;;;;;;5020565;28;20053;-86
2022/02/07 10:02:32;;;;;;;25.45;4.72;;;7.10;99.90;;;;;;5020819;28;20029;-86
2022/02/07 10:05:02;;;;;;;28.52;4.50;;;7.10;99.90;;;;;;5036545;28;20021;-88
2022/02/07 10:07:44;;;;;;;25.60;3.50;;;7.20;99.90;;;;;;5021080;28;20478;-86
2022/02/07 10:13:06;;;;;;;23.23;4.63;;;7.40;99.90;;;;;;5037362;28;20033;-86
2022/02/07 10:15:43;;;;;;;18.02;3.45;;;7.40;99.90;;;;;;5038535;28;20043;-86
2022/02/07 10:35:07;;;;;;;26.10;3.20;;;7.60;99.90;;;;;;5053793;28;20071;-87
2022/02/07 10:46:02;;;;;;;22.63;3.78;;;7.70;99.90;;;;;;5073725;28;20040;-87
2022/02/07 10:48:52;;;;;;;22.23;3.42;;;7.60;99.90;;;;;;5055907;28;20067;-87
2022/02/07 10:51:36;;;;;;;13.93;2.72;;;7.80;99.90;;;;;;5055548;28;20052;-87
2022/02/07 10:54:08;;;;;;;22.23;3.55;;;7.80;99.90;;;;;;5073946;28;20063;-88
2022/02/07 10:56:39;;;;;;;19.70;4.10;;;7.80;99.90;;;;;;5055744;28;20103;-87
2022/02/07 10:59:09;;;;;;;22.23;2.70;;;7.90;99.90;;;;;;5055648;28;20078;-86
2022/02/07 11:04:32;;;;;;;17.50;3.03;;;8.10;99.90;;;;;;5073563;28;20480;-87
2022/02/07 11:07:01;;;;;;;16.73;3.20;;;8.20;99.90;;;;;;5047695;28;20078;-87
2022/02/07 11:09:40;;;;;;;17.48;3.47;;;8.20;99.90;;;;;;5035292;28;20037;-88
2022/02/07 11:12:21;;;;;;;25.02;3.90;;;8.20;99.90;;;;;;5037658;28;20025;-88
2022/02/07 11:15:05;;;;;;;23.38;3.20;;;8.20;99.90;;;;;;5035145;28;20025;-91
2022/02/07 11:17:42;;;;;;;18.88;4.05;;;8.30;99.90;;;;;;5049866;28;20032;-86
2022/02/07 11:20:23;;;;;;;19.02;3.03;;;8.30;99.90;;;;;;5027425;28;20092;-87
2022/02/07 11:23:47;;;;;;;19.13;2.42;;;8.30;99.90;;;;;;5069746;28;20028;-87
2022/02/07 11:28:25;;;;;;;18.15;2.72;;;8.30;99.90;;;;;;5052863;28;20397;-87
2022/02/07 11:30:58;;;;;;;16.90;2.75;;;8.30;99.90;;;;;;5054675;28;20035;-87
2022/02/07 11:33:58;;;;;;;14.48;2.92;;;8.30;99.90;;;;;;5058098;28;20036;-86
2022/02/07 11:36:34;;;;;;;19.97;2.67;;;8.30;99.90;;;;;;5033154;28;20025;-88
2022/02/07 11:39:15;;;;;;;14.38;3.50;;;8.30;99.90;;;;;;5033292;28;20056;-87
2022/02/07 11:41:55;;;;;;;16.90;3.30;;;8.40;99.90;;;;;;5052943;28;20104;-87
2022/02/07 11:44:26;;;;;;;16.23;2.05;;;8.40;99.90;;;;;;5052731;28;20100;-87
2022/02/07 11:47:14;;;;;;;24.93;4.47;;;8.40;99.90;;;;;;5034878;28;20033;-87
2022/02/07 11:49:41;;;;;;;19.23;2.92;;;8.50;99.90;;;;;;5035158;28;20029;-87
2022/02/07 11:52:25;;;;;;;13.88;2.42;;;8.40;99.90;;;;;;5052639;28;20025;-88
2022/02/07 11:54:57;;;;;;;18.58;4.07;;;8.50;99.90;;;;;;5034838;28;20377;-87
2022/02/07 11:57:37;;;;;;;16.55;4.45;;;8.50;99.90;;;;;;5036914;28;20100;-86
2022/02/07 12:00:17;;;;;;;18.75;2.88;;;8.50;99.90;;;;;;5022457;28;20032;-87
2022/02/07 12:02:48;;;;;;;14.52;3.05;;;8.50;99.90;;;;;;5038257;28;20025;-86
2022/02/07 12:05:22;;;;;;;15.93;2.00;;;8.50;99.90;;;;;;5038469;28;20021;-87
2022/02/07 12:08:06;;;;;;;15.38;2.85;;;8.60;99.90;;;;;;5022077;28;20033;-88
2022/02/07 12:10:38;;;;;;;15.07;2.40;;;8.60;99.90;;;;;;5038359;28;20377;-86
2022/02/07 12:13:26;;;;;;;12.00;3.13;;;8.70;99.90;;;;;;5006820;28;20445;-87
2022/02/07 12:15:54;;;;;;;15.82;2.88;;;8.70;99.90;;;;;;5056387;28;20031;-84
2022/02/07 12:18:22;;;;;;;15.90;2.80;;;8.70;99.90;;;;;;5022480;28;20033;-84
2022/02/07 12:20:51;;;;;;;21.02;5.55;;;8.80;99.90;;;;;;5038603;28;20377;-84
2022/02/07 12:23:20;;;;;;;11.10;2.38;;;8.90;99.90;;;;;;5037996;28;20017;-84
2022/02/07 12:25:55;;;;;;;15.25;2.92;;;8.90;99.90;;;;;;5055981;28;20021;-84
2022/02/07 12:28:35;;;;;;;13.25;2.92;;;8.90;99.90;;;;;;5037940;28;20430;-84
2022/02/07 12:31:16;;;;;;;16.13;2.42;;;9.00;99.90;;;;;;5037949;28;20029;-84
2022/02/07 12:34:03;;;;;;;17.15;2.90;;;9.00;99.90;;;;;;5038161;28;20048;-83
2022/02/07 12:36:36;;;;;;;18.00;2.72;;;9.10;99.90;;;;;;5037160;28;20557;-84
2022/02/07 12:39:08;;;;;;;16.52;2.65;;;9.20;99.90;;;;;;5021270;28;20080;-84
2022/02/07 12:41:34;;;;;;;9.30;1.88;;;9.20;99.90;;;;;;5036905;28;20037;-84
2022/02/07 12:44:03;;;;;;;14.57;2.15;;;9.20;99.90;;;;;;5041527;28;20027;-85
2022/02/07 12:46:30;;;;;;;13.60;2.53;;;9.20;99.90;;;;;;5074680;28;20027;-85
2022/02/07 12:49:01;;;;;;;11.73;2.20;;;9.20;99.90;;;;;;5037735;28;20049;-85
2022/02/07 12:51:30;;;;;;;13.02;2.17;;;9.30;99.90;;;;;;5029699;28;20021;-85
2022/02/07 12:53:59;;;;;;;15.50;2.17;;;9.30;99.90;;;;;;5049495;28;20067;-87
2022/02/07 12:56:29;;;;;;;17.85;2.80;;;9.40;99.90;;;;;;5053355;28;20020;-86
2022/02/07 12:58:55;;;;;;;15.20;2.17;;;9.40;99.90;;;;;;5040692;28;20028;-84
2022/02/07 13:01:35;;;;;;;14.75;1.83;;;9.30;99.90;;;;;;5073234;28;20530;-84
2022/02/07 13:04:18;;;;;;;10.18;2.17;;;9.30;99.90;;;;;;5074970;28;20457;-85
2022/02/07 13:06:49;;;;;;;10.05;1.98;;;9.20;99.90;;;;;;5075329;28;20032;-85
2022/02/07 13:09:23;;;;;;;12.43;1.90;;;9.20;99.90;;;;;;5056392;28;20044;-86
2022/02/07 13:14:46;;;;;;;17.25;2.13;;;9.10;99.90;;;;;;5074843;28;20034;-84
2022/02/07 13:17:13;;;;;;;13.20;2.38;;;9.10;99.90;;;;;;5057176;28;20021;-85
2022/02/07 13:19:44;;;;;;;11.60;1.90;;;9.10;99.90;;;;;;5056941;28;20024;-85
2022/02/07 13:22:13;;;;;;;11.85;2.10;;;9.10;99.90;;;;;;5074617;28;20157;-85
2022/02/07 13:24:40;;;;;;;17.40;2.35;;;9.10;99.90;;;;;;5056800;28;20389;-85
2022/02/07 13:27:09;;;;;;;11.63;1.95;;;9.20;99.90;;;;;;5073403;28;20029;-85
2022/02/07 13:29:46;;;;;;;11.23;2.05;;;9.20;99.90;;;;;;5074584;28;20029;-84
2022/02/07 13:32:18;;;;;;;11.63;1.83;;;9.20;99.90;;;;;;5073506;28;20079;-84
2022/02/07 13:34:45;;;;;;;9.73;1.77;;;9.20;99.90;;;;;;5074359;28;20465;-85
2022/02/07 13:37:21;;;;;;;7.75;2.08;;;9.10;99.90;;;;;;5074857;28;20029;-86
2022/02/07 13:40:00;;;;;;;8.77;1.90;;;9.10;99.90;;;;;;5084685;28;20043;-85
2022/02/07 13:42:47;;;;;;;13.18;2.38;;;9.10;99.90;;;;;;5076489;28;20027;-85
2022/02/07 13:45:18;;;;;;;9.70;2.30;;;9.20;99.90;;;;;;5076582;28;20115;-85
2022/02/07 13:47:45;;;;;;;;;;;9.10;99.90;;;;;;5076936;28;20036;-85
2022/02/07 13:50:12;;;;;;;8.68;1.48;;;9.20;99.90;;;;;;5094362;28;20006;-85
2022/02/07 13:52:43;;;;;;;11.70;2.10;;;9.10;99.90;;;;;;5076304;28;20027;-86
2022/02/07 13:55:23;;;;;;;16.00;2.67;;;9.10;99.90;;;;;;5076652;28;20028;-86
2022/02/07 13:57:51;;;;;;;19.33;2.53;;;9.10;99.90;;;;;;5076684;28;20032;-85
2022/02/07 14:00:20;;;;;;;10.95;1.80;;;9.10;99.90;;;;;;5076546;28;20044;-85
2022/02/07 14:02:46;;;;;;;8.10;1.88;;;9.10;99.90;;;;;;5076327;28;20468;-85
2022/02/07 14:05:13;;;;;;;11.77;2.25;;;9.10;99.90;;;;;;5059623;28;20088;-85
2022/02/07 14:07:54;;;;;;;11.85;1.88;;;9.10;99.90;;;;;;5059950;28;20040;-86
2022/02/07 14:10:22;;;;;;;15.80;2.13;;;9.20;99.90;;;;;;5076911;28;20111;-86
2022/02/07 14:12:47;;;;;;;12.57;1.85;;;9.20;99.90;;;;;;5059881;28;20084;-86
2022/02/07 14:15:13;;;;;;;14.02;1.88;;;9.20;99.90;;;;;;5076022;28;20122;-85
2022/02/07 14:17:44;;;;;;;11.80;1.70;;;9.30;99.90;;;;;;5059400;28;20472;-86
2022/02/07 14:20:12;;;;;;;10.15;1.85;;;9.30;99.90;;;;;;5075855;28;20059;-86
2022/02/07 14:22:37;;;;;;;18.63;2.45;;;9.40;99.90;;;;;;5075839;28;20128;-85
2022/02/07 14:25:04;;;;;;;8.88;2.08;;;9.40;99.90;;;;;;5042770;28;20151;-86
2022/02/07 14:27:31;;;;;;;12.25;1.73;;;9.40;99.90;;;;;;5076103;28;20028;-86
2022/02/07 14:29:57;;;;;;;7.97;2.10;;;9.40;99.90;;;;;;5059436;28;20487;-86
2022/02/07 14:32:23;;;;;;;8.15;1.60;;;9.50;99.90;;;;;;5075673;28;20130;-87
2022/02/07 14:34:49;;;;;;;8.40;2.05;;;9.50;99.90;;;;;;5076266;28;20023;-86
2022/02/07 14:37:15;;;;;;;11.38;1.63;;;9.50;99.90;;;;;;5044107;28;20388;-86
2022/02/07 14:39:41;;;;;;;12.40;1.95;;;9.50;99.90;;;;;;5058907;28;20066;-85
2022/02/07 14:42:08;;;;;;;16.88;2.38;;;9.60;99.90;;;;;;5075968;28;20026;-85
2022/02/07 14:44:43;;;;;;;8.18;1.52;;;9.60;99.90;;;;;;5058883;28;20028;-86
2022/02/07 14:47:15;;;;;;;7.80;1.20;;;9.50;99.90;;;;;;5044781;28;20067;-86
2022/02/07 14:49:41;;;;;;;11.38;2.10;;;9.50;99.90;;;;;;5075283;28;20041;-86
2022/02/07 14:52:08;;;;;;;10.40;2.20;;;9.50;99.90;;;;;;5075638;28;20145;-88
2022/02/07 14:54:34;;;;;;;9.82;2.03;;;9.50;99.90;;;;;;5072235;28;20093;-86
2022/02/07 14:57:00;;;;;;;11.70;2.13;;;9.40;99.90;;;;;;5052921;28;20103;-86
2022/02/07 14:59:26;;;;;;;8.55;1.70;;;9.40;99.90;;;;;;5065557;28;20063;-86
2022/02/07 15:01:53;;;;;;;11.45;1.63;;;9.40;99.90;;;;;;5064856;28;20097;-87
2022/02/07 15:04:21;;;;;;;10.00;2.30;;;9.40;99.90;;;;;;5079305;28;20020;-87
2022/02/07 15:06:47;;;;;;;8.93;2.60;;;9.40;99.90;;;;;;5073539;28;20027;-86